Preview of NWS' New Version of Forecast
This preview is not operational and should not be used for support decisions.

Terminal Aerodrome Forecast (TAF)

Issued by National Weather Service (NWS)

                            
676 
FTUS42 KKEY 260012 AAA
TAFEYW
TAF AMD
KEYW 260012Z 2600/2624 12015KT P6SM VCSH SCT015 BKN060 OVC080
      TEMPO 2600/2604 11018G25KT 4SM SHRA BKN015 OVC060
     FM260600 13016G25KT 5SM -RA BR VCTS SCT015CB
      TEMPO 2606/2610 2SM -TSRA BKN015CB
     FM261000 13017G26KT 5SM -RA VCTS SCT015CB
      TEMPO 2610/2614 1SM -TSRA BKN015CB
     FM261400 13011G20KT 5SM -RA VCTS OVC015CB PROB30 2614/2620 2SM
      -TSRA BKN025CB=